Stockton, IL

7:35 AM CDT on August 22, 2014 (GMT -0500)
KILSTOCK2 | Change Station
CLOSE
Current Station
Personal Weather Station
Location: Stockton, IL
Elevation: 959 ft
Nearby Weather Stations

Elev 959 ft 42.40 °N, 89.99 °W | Updated 13 minutes ago

Overcast
Overcast
71.7 °F
Feels Like 71.7 °F
N
3.0
Wind Variable Wind from SE
Gusts 6.0 mph

Today
High -- | Low -- °F
--% Chance of Precip.
Yesterday
High -- | Low -- °F
Precip. -- in
6:14 AM 7:50 PM
Waning Crescent, 8% visible
Pressure 29.94 in
Visibility 1.0 miles
Clouds Overcast 200 ft
Dew Point 71 °F
Humidity 98%
Rainfall 0.00 in
Snow Depth Not available.
UV 0 out of 12
Pollen 6.30 out of 12
Air Quality Not available.
Flu Activity Not available.
METAR KEFT 221215Z AUTO 17005KT 1SM BR OVC002 22/22 A2994 RMK AO2 LTG DSNT SW

More Conditions Fewer Conditions

Pressure 29.94 in
Visibility 1.0 miles
Clouds Overcast 200 ft
Dew Point 71 °F
Humidity 98%
Rainfall 0.00 in
Snow Depth Not available.
UV 0 out of 12
Pollen 6.30 out of 12
Air Quality Not available.
Flu Activity Not available.
METAR KEFT 221215Z AUTO 17005KT 1SM BR OVC002 22/22 A2994 RMK AO2 LTG DSNT SW

More Conditions Fewer Conditions

10-Day Weather Forecast

Almanac

Astronomy

Aug. 22, 2014 Rise Set
Actual Time 6:14 AM CDT 7:50 PM CDT
Civil Twilight 5:44 AM CDT 8:19 PM CDT
Nautical Twilight 5:08 AM CDT 8:55 PM CDT
Astronomical Twilight 4:30 AM CDT 9:33 PM CDT
Moon 3:35 AM CDT 5:59 PM CDT
Length of Visible Light 14h 35m
Length of Day
13h 35m
Tomorrow will be 2m 38s shorter.
Waning Crescent, 8% of the Moon is Illuminated
Today
Waning Crescent
Aug 25
New
Sep 2
First Quarter
Sep 8
Full
Sep 15
Last Quarter

Today's Extremes

State Highs State Lows

Community

WunderPhotos

Upload Photos

1,746,158 photos uploaded!

WunderBlogs® & News

Nearby

Snow Depth

Station Depth Elevation
No new snow has been reported.

Earthquake Activity

City Distance Mag. Time & Date
No recent earthquake activity has been reported nearby.
Minimum magnitude displayed is 2.5.

Coastal Water Temperatures

Place Temperature
No Stations Reporting

Nearby Weather Stations